createdAt,value
2019-04-10T00:00:51.367Z,94647.58
2019-04-10T00:03:42.030Z,94645.09
2019-04-10T00:06:30.178Z,94645.86
2019-04-10T00:09:19.547Z,94645.88
2019-04-10T00:12:10.112Z,94647.94
2019-04-10T00:15:03.073Z,94648.63
2019-04-10T00:17:51.959Z,94650.67
2019-04-10T00:20:40.640Z,94656.42
2019-04-10T00:23:31.082Z,94654.25
2019-04-10T00:26:19.999Z,94654.87
2019-04-10T00:29:08.832Z,94653.95
2019-04-10T00:32:00.200Z,94646.00
2019-04-10T00:34:47.676Z,94647.41
2019-04-10T00:37:37.363Z,94655.10
2019-04-10T00:40:27.605Z,94651.33
2019-04-10T00:43:17.103Z,94644.09
2019-04-10T00:46:06.161Z,94638.58
2019-04-10T00:48:56.273Z,94644.83
2019-04-10T00:51:45.812Z,94638.60
2019-04-10T00:54:35.166Z,94636.34
2019-04-10T00:57:23.677Z,94641.83
2019-04-10T01:00:12.826Z,94639.38
2019-04-10T01:03:02.126Z,94635.29
2019-04-10T01:05:51.341Z,94629.83
2019-04-10T01:08:40.635Z,94631.12
2019-04-10T01:11:29.154Z,94635.13
2019-04-10T01:14:17.886Z,94632.02
2019-04-10T01:17:08.382Z,94634.77
2019-04-10T01:19:57.222Z,94633.22
2019-04-10T01:22:47.692Z,94633.27
2019-04-10T01:25:36.865Z,94629.35
2019-04-10T01:28:25.134Z,94626.18
2019-04-10T01:31:14.967Z,94620.19
2019-04-10T01:34:05.348Z,94620.84
2019-04-10T01:36:54.700Z,94621.75
2019-04-10T01:39:43.649Z,94621.23
2019-04-10T01:42:32.415Z,94614.97
2019-04-10T01:45:21.729Z,94611.70
2019-04-10T01:48:10.036Z,94614.05
2019-04-10T01:50:59.056Z,94610.55
2019-04-10T01:53:48.246Z,94616.20
2019-04-10T01:56:37.334Z,94601.42
2019-04-10T01:59:27.318Z,94606.75
2019-04-10T02:02:25.333Z,94604.59
2019-04-10T02:05:14.481Z,94604.73
2019-04-10T02:08:09.134Z,94602.20
2019-04-10T02:10:53.675Z,94608.00
2019-04-10T02:13:43.228Z,94609.90
2019-04-10T02:16:32.656Z,94606.30
2019-04-10T02:19:21.923Z,94605.37
2019-04-10T02:22:11.772Z,94602.73
2019-04-10T02:25:00.847Z,94602.86
2019-04-10T02:27:50.901Z,94609.36
2019-04-10T02:30:43.118Z,94604.93
2019-04-10T02:33:31.448Z,94603.55
2019-04-10T02:36:21.273Z,94603.50
2019-04-10T02:39:20.640Z,94603.41
2019-04-10T02:42:02.864Z,94598.06
2019-04-10T02:44:52.152Z,94601.41
2019-04-10T02:47:41.205Z,94600.64
2019-04-10T02:50:31.157Z,94605.64
2019-04-10T02:53:21.564Z,94605.78
2019-04-10T02:56:11.787Z,94603.44
2019-04-10T02:59:00.820Z,94604.34
2019-04-10T03:01:49.789Z,94603.64
2019-04-10T03:04:40.360Z,94605.59
2019-04-10T03:07:31.909Z,94601.03
2019-04-10T03:10:30.059Z,94600.52
2019-04-10T03:13:13.591Z,94599.78
2019-04-10T03:16:03.144Z,94596.86
2019-04-10T03:18:52.924Z,94599.33
2019-04-10T03:21:42.960Z,94597.63
2019-04-10T03:24:31.738Z,94608.36
2019-04-10T03:27:20.550Z,94600.38
2019-04-10T03:30:10.933Z,94603.37
2019-04-10T03:33:29.313Z,94600.81
2019-04-10T03:36:15.918Z,94608.88
2019-04-10T03:39:07.677Z,94609.73
2019-04-10T03:41:56.788Z,94609.38
2019-04-10T03:44:45.619Z,94602.58
2019-04-10T03:47:34.265Z,94605.18
2019-04-10T03:50:23.687Z,94602.70
2019-04-10T03:53:12.565Z,94611.31
2019-04-10T03:56:01.236Z,94609.68
2019-04-10T03:58:51.428Z,94613.08
2019-04-10T04:01:40.950Z,94607.30
2019-04-10T04:04:30.052Z,94610.69
2019-04-10T04:07:18.765Z,94606.41
2019-04-10T04:10:09.341Z,94610.35
2019-04-10T04:13:00.005Z,94613.81
2019-04-10T04:15:50.561Z,94618.11
2019-04-10T04:18:39.486Z,94610.73
2019-04-10T04:21:28.678Z,94608.55
2019-04-10T04:24:17.842Z,94611.09
2019-04-10T04:27:07.624Z,94610.81
2019-04-10T04:29:57.418Z,94606.99
2019-04-10T04:32:46.153Z,94613.85
2019-04-10T04:35:36.622Z,94607.38
2019-04-10T04:38:27.706Z,94616.42
2019-04-10T04:41:17.406Z,94617.25
2019-04-10T04:44:06.638Z,94621.44
2019-04-10T04:46:56.909Z,94618.52
2019-04-10T04:49:46.730Z,94618.39
2019-04-10T04:52:35.580Z,94618.81
2019-04-10T04:55:24.440Z,94624.89
2019-04-10T04:58:13.789Z,94620.72
2019-04-10T05:01:02.646Z,94635.34
2019-04-10T05:03:52.626Z,94624.55
2019-04-10T05:06:41.853Z,94625.66
2019-04-10T05:09:35.577Z,94633.58
2019-04-10T05:12:20.559Z,94634.23
2019-04-10T05:15:10.911Z,94634.81
2019-04-10T05:17:59.940Z,94633.39
2019-04-10T05:20:50.858Z,94634.39
2019-04-10T05:23:39.689Z,94633.34
2019-04-10T05:26:29.876Z,94635.29
2019-04-10T05:29:19.562Z,94629.44
2019-04-10T05:32:09.297Z,94636.91
2019-04-10T05:34:58.563Z,94640.28
2019-04-10T05:37:47.789Z,94646.60
2019-04-10T05:40:36.709Z,94642.27
2019-04-10T05:43:26.168Z,94642.30
2019-04-10T05:46:14.874Z,94640.67
2019-04-10T05:49:04.440Z,94644.78
2019-04-10T05:51:56.379Z,94649.59
2019-04-10T05:54:45.509Z,94646.50
2019-04-10T05:57:34.905Z,94647.00
2019-04-10T06:00:25.009Z,94654.48
2019-04-10T06:03:14.539Z,94653.97
2019-04-10T06:06:04.158Z,94650.20
2019-04-10T06:08:52.995Z,94652.10
2019-04-10T06:11:44.015Z,94652.10
2019-04-10T06:14:32.464Z,94657.50
2019-04-10T06:17:22.602Z,94651.08
2019-04-10T06:20:14.006Z,94652.13
2019-04-10T06:23:03.209Z,94654.25
2019-04-10T06:25:52.153Z,94649.01
2019-04-10T06:28:40.875Z,94654.41
2019-04-10T06:31:30.487Z,94650.97
2019-04-10T06:34:20.566Z,94654.47
2019-04-10T06:37:10.171Z,94655.12
2019-04-10T06:40:10.707Z,94648.22
2019-04-10T06:42:53.113Z,94639.76
2019-04-10T06:45:39.939Z,94651.31
2019-04-10T06:48:29.029Z,94643.10
2019-04-10T06:51:19.874Z,94650.66
2019-04-10T06:54:11.043Z,94654.89
2019-04-10T06:59:08.817Z,94661.55
2019-04-10T07:02:11.436Z,94661.36
2019-04-10T07:04:53.095Z,94658.28
2019-04-10T07:07:48.533Z,94655.75
2019-04-10T07:10:39.899Z,94658.22
2019-04-10T07:13:19.737Z,94656.86
2019-04-10T07:16:10.119Z,94662.59
2019-04-10T07:19:03.079Z,94661.62
2019-04-10T07:21:49.212Z,94662.66
2019-04-10T07:24:41.198Z,94665.83
2019-04-10T07:27:32.487Z,94664.12
2019-04-10T07:30:23.598Z,94670.94
2019-04-10T07:33:09.763Z,94666.77
2019-04-10T07:35:59.235Z,94677.94
2019-04-10T07:38:48.907Z,94672.19
2019-04-10T07:41:37.871Z,94678.19
2019-04-10T07:44:27.183Z,94672.38
2019-04-10T07:47:15.490Z,94669.58
2019-04-10T07:50:08.754Z,94677.78
2019-04-10T07:52:58.106Z,94678.70
2019-04-10T07:56:00.366Z,94676.68
2019-04-10T07:58:37.769Z,94681.89
2019-04-10T08:01:26.446Z,94678.56
2019-04-10T08:04:15.275Z,94684.09
2019-04-10T08:07:03.721Z,94686.78
2019-04-10T08:09:52.374Z,94688.67
2019-04-10T08:12:47.586Z,94693.36
2019-04-10T08:15:31.584Z,94695.91
2019-04-10T08:18:21.206Z,94689.35
2019-04-10T08:21:09.637Z,94694.36
2019-04-10T08:23:58.603Z,94696.69
2019-04-10T08:26:47.838Z,94699.32
2019-04-10T08:29:36.762Z,94704.98
2019-04-10T08:32:25.757Z,94706.13
2019-04-10T08:35:15.449Z,94711.25
2019-04-10T08:38:05.500Z,94715.42
2019-04-10T08:40:54.553Z,94710.33
2019-04-10T08:43:43.585Z,94713.21
2019-04-10T08:46:33.561Z,94715.44
2019-04-10T08:49:22.935Z,94708.30
2019-04-10T08:52:12.268Z,94711.70
2019-04-10T08:55:03.754Z,94711.31
2019-04-10T08:57:52.639Z,94715.74
2019-04-10T09:00:41.120Z,94708.02
2019-04-10T09:03:30.926Z,94710.95
2019-04-10T09:06:20.782Z,94705.02
2019-04-10T09:09:09.773Z,94704.98
2019-04-10T09:11:59.720Z,94705.78
2019-04-10T09:14:49.592Z,94711.69
2019-04-10T09:17:39.556Z,94723.50
2019-04-10T09:20:28.900Z,94714.49
2019-04-10T09:23:29.813Z,94719.47
2019-04-10T09:26:08.844Z,94724.80
2019-04-10T09:28:58.880Z,94719.80
2019-04-10T09:31:48.145Z,94714.80
2019-04-10T09:34:37.972Z,94714.13
2019-04-10T09:37:28.221Z,94716.83
2019-04-10T09:40:16.822Z,94715.05
2019-04-10T09:43:05.946Z,94713.97
2019-04-10T09:45:55.729Z,94713.97
2019-04-10T09:48:44.959Z,94722.00
2019-04-10T09:51:34.195Z,94717.22
2019-04-10T09:54:23.995Z,94710.20
2019-04-10T09:57:13.310Z,94716.20
2019-04-10T10:00:02.864Z,94719.14
2019-04-10T10:02:52.881Z,94715.52
2019-04-10T10:05:42.465Z,94721.82
2019-04-10T10:08:31.780Z,94721.05
2019-04-10T10:11:24.653Z,94718.97
2019-04-10T10:14:13.288Z,94713.11
2019-04-10T10:17:02.220Z,94715.34
2019-04-10T10:19:53.525Z,94715.27
2019-04-10T10:22:41.499Z,94714.56
2019-04-10T10:25:30.985Z,94719.32
2019-04-10T10:28:20.821Z,94720.23
2019-04-10T10:31:09.922Z,94719.80
2019-04-10T10:33:59.098Z,94722.56
2019-04-10T10:36:50.647Z,94726.58
2019-04-10T10:39:38.985Z,94727.30
2019-04-10T10:42:28.348Z,94730.44
2019-04-10T10:45:18.636Z,94723.81
2019-04-10T10:48:08.613Z,94728.36
2019-04-10T10:50:58.247Z,94728.84
2019-04-10T10:53:48.292Z,94729.31
2019-04-10T10:56:38.222Z,94730.11
2019-04-10T10:59:27.366Z,94728.00
2019-04-10T11:02:17.091Z,94731.88
2019-04-10T11:05:07.168Z,94731.03
2019-04-10T11:07:57.327Z,94735.82
2019-04-10T11:10:50.457Z,94726.34
2019-04-10T11:13:37.127Z,94730.72
2019-04-10T11:16:27.169Z,94731.78
2019-04-10T11:19:17.274Z,94735.02
2019-04-10T11:22:07.476Z,94734.37
2019-04-10T11:24:57.540Z,94728.69
2019-04-10T11:27:47.542Z,94731.16
2019-04-10T11:30:36.496Z,94731.69
2019-04-10T11:33:26.325Z,94732.38
2019-04-10T11:36:17.441Z,94730.47
2019-04-10T11:41:59.402Z,94736.41
2019-04-10T11:44:49.334Z,94730.70
2019-04-10T11:47:38.841Z,94726.81
2019-04-10T11:50:28.599Z,94728.60
2019-04-10T11:53:19.111Z,94729.61
2019-04-10T11:56:10.384Z,94725.14
2019-04-10T11:58:59.330Z,94731.72
2019-04-10T12:01:50.692Z,94729.56
2019-04-10T12:04:48.019Z,94731.25
2019-04-10T12:13:10.350Z,94735.80
2019-04-10T12:15:59.477Z,94739.34
2019-04-10T12:18:48.880Z,94730.67
2019-04-10T12:21:38.001Z,94733.67
2019-04-10T12:24:27.311Z,94741.91
2019-04-10T12:27:16.669Z,94741.59
2019-04-10T12:30:07.936Z,94750.22
2019-04-10T12:32:56.851Z,94745.99
2019-04-10T12:35:45.766Z,94744.14
2019-04-10T12:38:34.386Z,94742.06
2019-04-10T12:41:23.519Z,94748.08
2019-04-10T12:44:13.597Z,94746.05
2019-04-10T12:47:03.540Z,94746.38
2019-04-10T12:49:58.226Z,94746.36
2019-04-10T12:52:49.344Z,94749.50
2019-04-10T12:55:38.958Z,94741.97
2019-04-10T12:58:28.863Z,94746.67
2019-04-10T13:01:18.431Z,94745.75
2019-04-10T13:04:07.529Z,94749.69
2019-04-10T13:06:57.001Z,94748.13
2019-04-10T13:09:46.323Z,94748.83
2019-04-10T13:12:36.018Z,94746.84
2019-04-10T13:15:27.687Z,94737.83
2019-04-10T13:18:16.936Z,94746.45
2019-04-10T13:21:06.346Z,94737.58
2019-04-10T13:23:57.279Z,94741.14
2019-04-10T13:26:50.256Z,94744.14
2019-04-10T13:29:39.209Z,94740.73
2019-04-10T13:32:28.123Z,94744.59
2019-04-10T13:35:17.957Z,94739.74
2019-04-10T13:38:07.329Z,94745.98
2019-04-10T13:40:56.359Z,94745.98
2019-04-10T13:43:47.779Z,94743.65
2019-04-10T13:46:37.285Z,94740.88
2019-04-10T13:49:26.180Z,94740.05
2019-04-10T13:52:16.136Z,94744.26
2019-04-10T13:55:05.712Z,94743.33
2019-04-10T13:57:55.034Z,94747.04
2019-04-10T14:00:43.716Z,94747.38
2019-04-10T14:03:32.706Z,94749.28
2019-04-10T14:06:21.819Z,94746.59
2019-04-10T14:09:30.064Z,94746.23
2019-04-10T14:12:08.446Z,94747.27
2019-04-10T14:14:57.369Z,94753.16
2019-04-10T14:17:46.652Z,94754.94
2019-04-10T14:20:35.593Z,94753.72
2019-04-10T14:23:28.631Z,94754.05
2019-04-10T14:26:45.852Z,94762.27
2019-04-10T14:29:25.185Z,94754.94
2019-04-10T14:32:20.797Z,94762.20
2019-04-10T14:35:10.385Z,94762.64
2019-04-10T14:38:01.012Z,94759.34
2019-04-10T14:40:50.076Z,94758.09
2019-04-10T14:43:39.756Z,94762.89
2019-04-10T14:46:28.905Z,94759.73
2019-04-10T14:49:18.749Z,94760.71
2019-04-10T14:52:08.725Z,94769.19
2019-04-10T14:54:57.684Z,94770.73
2019-04-10T14:57:47.960Z,94764.28
2019-04-10T15:00:41.160Z,94769.72
2019-04-10T15:03:30.695Z,94774.27
2019-04-10T15:06:22.734Z,94775.11
2019-04-10T15:09:25.570Z,94772.97
2019-04-10T15:12:12.303Z,94772.91
2019-04-10T15:15:01.750Z,94775.67
2019-04-10T15:17:51.173Z,94774.75
2019-04-10T15:20:40.242Z,94775.08
2019-04-10T15:23:29.619Z,94782.78
2019-04-10T15:26:18.210Z,94778.23
2019-04-10T15:29:07.837Z,94779.16
2019-04-10T15:31:57.823Z,94786.38
2019-04-10T15:34:48.269Z,94785.61
2019-04-10T15:37:37.420Z,94780.31
2019-04-10T15:40:27.662Z,94784.00
2019-04-10T15:43:16.805Z,94784.68
2019-04-10T15:46:06.221Z,94788.41
2019-04-10T15:48:55.161Z,94787.30
2019-04-10T15:51:44.157Z,94785.91
2019-04-10T15:54:33.985Z,94795.16
2019-04-10T15:57:23.250Z,94788.28
2019-04-10T16:00:12.842Z,94791.77
2019-04-10T16:03:01.433Z,94793.37
2019-04-10T16:05:50.567Z,94794.30
2019-04-10T16:08:40.789Z,94793.84
2019-04-10T16:11:47.062Z,94786.77
2019-04-10T16:14:35.954Z,94797.23
2019-04-10T16:17:44.026Z,94799.62
2019-04-10T16:20:33.976Z,94800.15
2019-04-10T16:23:29.088Z,94802.91
2019-04-10T16:26:18.775Z,94803.66
2019-04-10T16:29:08.281Z,94805.59
2019-04-10T16:31:56.845Z,94808.73
2019-04-10T16:34:47.103Z,94808.94
2019-04-10T16:37:36.153Z,94802.48
2019-04-10T16:40:24.905Z,94807.00
2019-04-10T16:43:13.991Z,94812.38
2019-04-10T16:46:02.862Z,94811.59
2019-04-10T16:48:51.267Z,94816.39
2019-04-10T16:51:40.582Z,94815.66
2019-04-10T16:54:29.299Z,94814.89
2019-04-10T16:57:18.516Z,94821.19
2019-04-10T17:00:08.158Z,94829.64
2019-04-10T17:02:57.070Z,94825.36
2019-04-10T17:05:46.307Z,94834.13
2019-04-10T17:08:37.340Z,94836.34
2019-04-10T17:11:27.104Z,94838.57
2019-04-10T17:14:17.474Z,94835.80
2019-04-10T17:17:06.888Z,94835.31
2019-04-10T17:19:57.306Z,94838.27
2019-04-10T17:22:48.581Z,94842.39
2019-04-10T17:25:36.010Z,94838.21
2019-04-10T17:28:26.524Z,94839.52
2019-04-10T17:31:18.219Z,94838.66
2019-04-10T17:34:06.790Z,94841.41
2019-04-10T17:36:57.035Z,94841.10
2019-04-10T17:39:45.630Z,94846.13
2019-04-10T17:42:34.556Z,94847.92
2019-04-10T17:45:25.839Z,94852.75
2019-04-10T17:48:15.645Z,94858.91
2019-04-10T17:51:05.843Z,94861.02
2019-04-10T17:53:55.914Z,94862.38
2019-04-10T17:56:46.513Z,94869.39
2019-04-10T17:59:35.832Z,94872.80
2019-04-10T18:02:25.450Z,94874.75
2019-04-10T18:05:14.820Z,94881.02
2019-04-10T18:08:05.106Z,94881.02
2019-04-10T18:10:56.024Z,94886.11
2019-04-10T18:13:45.035Z,94892.52
2019-04-10T18:16:33.930Z,94899.44
2019-04-10T18:19:22.597Z,94902.44
2019-04-10T18:22:12.174Z,94904.13
2019-04-10T18:25:01.548Z,94902.60
2019-04-10T18:27:50.074Z,94914.70
2019-04-10T18:30:39.171Z,94912.02
2019-04-10T18:33:29.230Z,94920.30
2019-04-10T18:36:17.579Z,94930.11
2019-04-10T18:39:12.801Z,94934.07
2019-04-10T18:42:01.294Z,94935.67
2019-04-10T18:44:50.336Z,94942.25
2019-04-10T18:47:39.418Z,94946.21
2019-04-10T18:50:28.678Z,94945.30
2019-04-10T18:53:19.195Z,94948.20
2019-04-10T18:56:09.083Z,94955.08
2019-04-10T18:59:08.569Z,94955.56
2019-04-10T19:02:20.448Z,94959.91
2019-04-10T19:05:19.408Z,94960.27
2019-04-10T19:08:12.775Z,94967.30
2019-04-10T19:11:10.609Z,94970.36
2019-04-10T19:13:51.018Z,94968.53
2019-04-10T19:16:41.486Z,94980.02
2019-04-10T19:19:30.652Z,94975.59
2019-04-10T19:22:20.327Z,94978.20
2019-04-10T19:25:10.483Z,94982.52
2019-04-10T19:28:00.343Z,94979.31
2019-04-10T19:31:09.640Z,94985.96
2019-04-10T19:33:49.156Z,94986.00
2019-04-10T19:36:38.105Z,94988.50
2019-04-10T19:39:27.368Z,94992.37
2019-04-10T19:42:17.483Z,94990.00
2019-04-10T19:45:09.836Z,94994.30
2019-04-10T19:47:59.003Z,94993.52
2019-04-10T19:50:47.990Z,94998.15
2019-04-10T19:53:37.486Z,94997.47
2019-04-10T19:56:26.745Z,94998.50
2019-04-10T19:59:16.693Z,94995.30
2019-04-10T20:02:06.693Z,95004.00
2019-04-10T20:04:56.982Z,95000.16
2019-04-10T20:07:47.531Z,95002.53
2019-04-10T20:10:37.370Z,95002.45
2019-04-10T20:13:26.954Z,95003.55
2019-04-10T20:16:15.689Z,95009.17
2019-04-10T20:19:05.488Z,95008.66
2019-04-10T20:21:56.484Z,95000.64
2019-04-10T20:24:47.224Z,95007.79
2019-04-10T20:27:36.206Z,95009.96
2019-04-10T20:30:28.075Z,95016.20
2019-04-10T20:33:18.676Z,95016.20
2019-04-10T20:36:08.913Z,95015.80
2019-04-10T20:38:59.003Z,95017.97
2019-04-10T20:41:53.222Z,95021.63
2019-04-10T20:44:38.766Z,95021.63
2019-04-10T20:47:28.006Z,95021.99
2019-04-10T20:50:17.461Z,95027.58
2019-04-10T20:53:07.489Z,95025.48
2019-04-10T20:55:56.131Z,95028.48
2019-04-10T20:58:45.053Z,95031.49
2019-04-10T21:01:35.095Z,95031.68
2019-04-10T21:04:23.897Z,95032.00
2019-04-10T21:07:12.796Z,95036.42
2019-04-10T21:10:01.283Z,95034.00
2019-04-10T21:12:50.433Z,95036.86
2019-04-10T21:15:40.096Z,95043.09
2019-04-10T21:18:29.248Z,95035.70
2019-04-10T21:21:18.601Z,95043.42
2019-04-10T21:24:07.761Z,95039.19
2019-04-10T21:26:56.969Z,95043.12
2019-04-10T21:30:07.499Z,95047.11
2019-04-10T21:33:03.882Z,95042.66
2019-04-10T21:35:54.069Z,95048.13
2019-04-10T21:38:42.834Z,95049.83
2019-04-10T21:41:32.679Z,95052.07
2019-04-10T21:44:21.783Z,95050.08
2019-04-10T21:47:11.098Z,95043.81
2019-04-10T21:50:00.407Z,95038.09
2019-04-10T21:52:49.827Z,95041.61
2019-04-10T21:55:39.511Z,95043.30
2019-04-10T21:58:28.742Z,95043.70
2019-04-10T22:01:18.569Z,95038.70
2019-04-10T22:04:08.207Z,95046.13
2019-04-10T22:07:14.028Z,95042.66
2019-04-10T22:10:19.940Z,95048.27
2019-04-10T22:13:09.035Z,95044.75
2019-04-10T22:15:59.690Z,95047.75
2019-04-10T22:18:48.150Z,95052.20
2019-04-10T22:21:37.611Z,95049.16
2019-04-10T22:24:26.878Z,95043.69
2019-04-10T22:27:17.006Z,95048.36
2019-04-10T22:30:08.325Z,95051.66
2019-04-10T22:33:03.286Z,95052.06
2019-04-10T22:35:52.609Z,95053.30
2019-04-10T22:38:41.861Z,95054.09
2019-04-10T22:41:32.718Z,95061.37
2019-04-10T22:44:32.470Z,95055.69
2019-04-10T22:47:11.290Z,95055.69
2019-04-10T22:50:00.839Z,95058.91
2019-04-10T22:52:50.706Z,95053.59
2019-04-10T22:55:40.253Z,95050.98
2019-04-10T22:58:29.221Z,95053.78
2019-04-10T23:01:18.621Z,95047.27
2019-04-10T23:04:08.015Z,95046.10
2019-04-10T23:06:57.712Z,95044.66
2019-04-10T23:09:47.098Z,95045.06
2019-04-10T23:12:35.628Z,95037.27
2019-04-10T23:15:25.120Z,95034.13
2019-04-10T23:18:15.120Z,95039.74
2019-04-10T23:21:04.146Z,95035.07
2019-04-10T23:23:52.728Z,95038.69
2019-04-10T23:26:41.638Z,95040.78
2019-04-10T23:29:30.950Z,95041.69
2019-04-10T23:32:19.481Z,95043.39
2019-04-10T23:35:07.894Z,95043.39
2019-04-10T23:37:57.290Z,95042.95
2019-04-10T23:40:45.840Z,95051.78
2019-04-10T23:43:35.669Z,95045.59
2019-04-10T23:46:24.773Z,95046.06
2019-04-10T23:49:13.375Z,95048.91
2019-04-10T23:52:01.831Z,95046.67
2019-04-10T23:54:51.367Z,95050.08
2019-04-10T23:57:41.129Z,95048.38
